Time;durP1;ratioP1;P1;durP2;ratioP2;P2;SDS_P1;SDS_P2;PMS_P1;PMS_P2;Temp;Humidity;BMP_temperature;BMP_pressure;BME280_temperature;BME280_humidity;BME280_pressure;Samples;Min_cycle;Max_cycle;Signal;HPM_P1;HPM_P2
2021/06/01 00:01:19;;;;;;;3.30;2.20;;;;;;;;;;5053310;28;20033;-59
2021/06/01 00:03:45;;;;;;;3.47;2.03;;;;;;;;;;5053083;28;20108;-59
2021/06/01 00:06:11;;;;;;;3.75;2.47;;;;;;;;;;5052955;28;20036;-59
2021/06/01 00:08:37;;;;;;;2.58;1.52;;;;;;;;;;5053043;28;20025;-59
2021/06/01 00:11:04;;;;;;;2.88;2.25;;;;;;;;;;5053386;28;20040;-59
2021/06/01 00:13:30;;;;;;;3.03;2.00;;;;;;;;;;5035093;28;20079;-59
2021/06/01 00:15:56;;;;;;;3.08;2.13;;;;;;;;;;5035199;28;20021;-59
2021/06/01 00:18:22;;;;;;;3.08;2.25;;;;;;;;;;5053475;28;20032;-59
2021/06/01 00:20:48;;;;;;;3.25;2.22;;;;;;;;;;5052957;28;20033;-59
2021/06/01 00:23:20;;;;;;;2.17;1.75;;;;;;;;;;5052640;28;20459;-59
2021/06/01 00:25:46;;;;;;;3.35;2.10;;;;;;;;;;5053427;28;20113;-59
2021/06/01 00:28:12;;;;;;;2.38;1.67;;;;;;;;;;5039159;28;20029;-59
2021/06/01 00:30:40;;;;;;;2.67;1.88;;;;;;;;;;5056054;28;20436;-59
2021/06/01 00:33:07;;;;;;;3.15;2.38;;;;;;;;;;5056397;28;20025;-59
2021/06/01 00:35:36;;;;;;;3.30;2.28;;;;;;;;;;5056832;28;20505;-59
2021/06/01 00:38:02;;;;;;;3.47;1.98;;;;;;;;;;5055905;28;20029;-59
2021/06/01 00:40:28;;;;;;;2.17;1.85;;;;;;;;;;5056134;28;20037;-59
2021/06/01 00:42:54;;;;;;;3.13;2.05;;;;;;;;;;5056477;28;20060;-59
2021/06/01 00:45:21;;;;;;;3.22;2.15;;;;;;;;;;5055841;28;20500;-59
2021/06/01 00:47:48;;;;;;;3.03;1.77;;;;;;;;;;5056067;28;20025;-59
2021/06/01 00:50:14;;;;;;;2.47;1.63;;;;;;;;;;5055597;28;20481;-59
2021/06/01 00:52:40;;;;;;;3.50;2.10;;;;;;;;;;5038496;28;20466;-59
2021/06/01 00:55:07;;;;;;;4.03;2.33;;;;;;;;;;5056264;28;20075;-59
2021/06/01 00:57:36;;;;;;;2.78;1.67;;;;;;;;;;5055912;28;20090;-59
2021/06/01 01:00:09;;;;;;;2.50;1.63;;;;;;;;;;5038445;28;20049;-59
2021/06/01 01:02:36;;;;;;;2.40;1.60;;;;;;;;;;5038519;28;20394;-59
2021/06/01 01:05:05;;;;;;;2.35;1.83;;;;;;;;;;5055709;28;20035;-59
2021/06/01 01:07:45;;;;;;;2.70;2.30;;;;;;;;;;5055987;28;20029;-59
2021/06/01 01:10:13;;;;;;;3.75;2.25;;;;;;;;;;5056233;28;20410;-59
2021/06/01 01:12:42;;;;;;;2.60;2.05;;;;;;;;;;5055971;28;20056;-59
2021/06/01 01:51:57;;;;;;;6.57;1.95;;;;;;;;;;5055030;28;20454;-59
2021/06/01 01:54:25;;;;;;;3.83;2.22;;;;;;;;;;5055095;28;20025;-59
2021/06/01 01:56:56;;;;;;;2.22;1.70;;;;;;;;;;5036947;28;20029;-59
2021/06/01 01:59:24;;;;;;;2.67;1.83;;;;;;;;;;5054928;28;20518;-59
2021/06/01 02:01:51;;;;;;;3.35;2.08;;;;;;;;;;5055164;28;20056;-59
2021/06/01 02:04:26;;;;;;;2.45;1.85;;;;;;;;;;5036975;28;20131;-59
2021/06/01 02:06:52;;;;;;;5.63;1.73;;;;;;;;;;5054890;28;20021;-59
2021/06/01 02:09:18;;;;;;;3.08;2.38;;;;;;;;;;5054772;28;20032;-59
2021/06/01 02:11:44;;;;;;;2.65;1.65;;;;;;;;;;5055157;28;20037;-59
2021/06/01 02:14:10;;;;;;;4.15;2.47;;;;;;;;;;5054522;28;20348;-59
2021/06/01 02:16:37;;;;;;;3.22;2.33;;;;;;;;;;5036609;28;20025;-59
2021/06/01 02:19:08;;;;;;;3.03;1.90;;;;;;;;;;5054348;28;20079;-59
2021/06/01 02:22:00;;;;;;;5.07;2.30;;;;;;;;;;5054256;28;20494;-59
2021/06/01 02:24:37;;;;;;;3.70;1.90;;;;;;;;;;5037354;28;20371;-59
2021/06/01 02:46:04;;;;;;;3.67;2.22;;;;;;;;;;5054109;28;20060;-59
2021/06/01 02:48:31;;;;;;;4.32;2.42;;;;;;;;;;5053752;28;20029;-59
2021/06/01 02:50:58;;;;;;;3.58;2.40;;;;;;;;;;5036197;28;20128;-59
2021/06/01 02:53:24;;;;;;;2.35;1.90;;;;;;;;;;5053718;28;20029;-59
2021/06/01 02:55:51;;;;;;;3.28;2.10;;;;;;;;;;5054055;28;20040;-59
2021/06/01 02:58:20;;;;;;;3.17;2.22;;;;;;;;;;5035668;28;20056;-59
2021/06/01 03:00:46;;;;;;;3.05;2.38;;;;;;;;;;5054461;28;20056;-59
2021/06/01 03:03:13;;;;;;;4.80;2.85;;;;;;;;;;5054124;28;20464;-59
2021/06/01 03:05:40;;;;;;;3.72;3.05;;;;;;;;;;5054186;28;20021;-59
2021/06/01 03:08:12;;;;;;;3.65;2.53;;;;;;;;;;5035756;28;20029;-59
2021/06/01 03:10:41;;;;;;;3.10;2.47;;;;;;;;;;5036314;28;20025;-59
2021/06/01 03:13:07;;;;;;;3.95;3.20;;;;;;;;;;5035672;28;20463;-59
2021/06/01 03:15:34;;;;;;;3.97;2.47;;;;;;;;;;5053492;28;20021;-59
2021/06/01 03:18:00;;;;;;;3.80;2.30;;;;;;;;;;5036354;28;20029;-60
2021/06/01 03:20:26;;;;;;;5.45;3.13;;;;;;;;;;5053728;28;20036;-60
2021/06/01 03:22:52;;;;;;;3.95;2.80;;;;;;;;;;5053836;28;20033;-60
2021/06/01 03:25:21;;;;;;;4.35;2.38;;;;;;;;;;5035581;28;20036;-60
2021/06/01 03:27:50;;;;;;;4.13;2.78;;;;;;;;;;5035635;28;20040;-60
2021/06/01 03:30:16;;;;;;;4.13;2.78;;;;;;;;;;5052563;28;20060;-60
2021/06/01 03:32:42;;;;;;;4.97;3.15;;;;;;;;;;5053471;28;20037;-60
2021/06/01 03:35:09;;;;;;;3.70;2.90;;;;;;;;;;5054004;28;20029;-60
2021/06/01 03:37:35;;;;;;;6.38;2.78;;;;;;;;;;5053674;28;20048;-60
2021/06/01 03:40:01;;;;;;;4.68;2.97;;;;;;;;;;5053136;28;20029;-60
2021/06/01 03:42:27;;;;;;;3.92;2.97;;;;;;;;;;5053331;28;20056;-60
2021/06/01 03:44:55;;;;;;;7.35;3.05;;;;;;;;;;5036227;28;20061;-60
2021/06/01 03:47:22;;;;;;;3.78;2.90;;;;;;;;;;5053289;28;20017;-60
2021/06/01 03:49:50;;;;;;;2.88;2.42;;;;;;;;;;5053330;28;20343;-60
2021/06/01 03:52:16;;;;;;;3.35;2.47;;;;;;;;;;5053278;28;20029;-60
2021/06/01 03:54:42;;;;;;;3.17;2.05;;;;;;;;;;5052893;28;20033;-60
2021/06/01 03:57:11;;;;;;;3.83;2.70;;;;;;;;;;5036093;28;20063;-60
2021/06/01 03:59:37;;;;;;;3.65;2.75;;;;;;;;;;5053270;28;20392;-60
2021/06/01 04:02:07;;;;;;;3.90;2.40;;;;;;;;;;5057273;28;20032;-60
2021/06/01 04:04:33;;;;;;;2.67;2.22;;;;;;;;;;5039013;28;20130;-60
2021/06/01 04:06:59;;;;;;;3.40;2.53;;;;;;;;;;5056682;28;20536;-60
2021/06/01 04:09:25;;;;;;;4.47;2.78;;;;;;;;;;5039782;28;20343;-60
2021/06/01 04:11:51;;;;;;;3.85;3.00;;;;;;;;;;5039773;28;20451;-60
2021/06/01 04:14:19;;;;;;;4.72;2.97;;;;;;;;;;5056750;28;20100;-60
2021/06/01 04:16:45;;;;;;;6.70;3.60;;;;;;;;;;5056989;28;20079;-60
2021/06/01 04:19:11;;;;;;;5.28;3.03;;;;;;;;;;5039545;28;20035;-60
2021/06/01 04:21:37;;;;;;;3.78;2.75;;;;;;;;;;5056291;28;20051;-60
2021/06/01 04:24:04;;;;;;;5.50;3.13;;;;;;;;;;5056506;28;20025;-60
2021/06/01 04:26:33;;;;;;;4.32;2.90;;;;;;;;;;5039166;28;20028;-60
2021/06/01 04:28:59;;;;;;;5.57;3.15;;;;;;;;;;5038869;28;20021;-60
2021/06/01 04:31:28;;;;;;;4.30;3.15;;;;;;;;;;5056819;28;20032;-60
2021/06/01 04:33:54;;;;;;;6.45;3.10;;;;;;;;;;5056274;28;20029;-60
2021/06/01 04:36:20;;;;;;;5.38;3.17;;;;;;;;;;5056094;28;20466;-60
2021/06/01 04:38:47;;;;;;;3.47;2.78;;;;;;;;;;5022010;28;20025;-60
2021/06/01 04:41:13;;;;;;;4.75;2.95;;;;;;;;;;5038967;28;20446;-60
2021/06/01 04:43:39;;;;;;;3.38;2.50;;;;;;;;;;5055884;28;20040;-60
2021/06/01 04:46:08;;;;;;;3.78;2.50;;;;;;;;;;5056645;28;20029;-60
2021/06/01 04:48:35;;;;;;;7.88;3.00;;;;;;;;;;5039313;28;20451;-60
2021/06/01 04:51:03;;;;;;;4.43;3.28;;;;;;;;;;5038288;28;20124;-60
2021/06/01 04:53:30;;;;;;;4.57;2.88;;;;;;;;;;5056040;28;20035;-60
2021/06/01 04:55:58;;;;;;;5.55;5.05;;;;;;;;;;5056285;28;20056;-60
2021/06/01 04:58:24;;;;;;;3.67;2.95;;;;;;;;;;5037627;28;20386;-60
2021/06/01 05:00:50;;;;;;;5.28;2.90;;;;;;;;;;5038561;28;20133;-60
2021/06/01 05:03:17;;;;;;;3.22;2.30;;;;;;;;;;5055778;28;20426;-60
2021/06/01 05:05:43;;;;;;;3.03;2.30;;;;;;;;;;5021478;28;20115;-60
2021/06/01 05:08:09;;;;;;;3.45;2.28;;;;;;;;;;5055743;28;20115;-60
2021/06/01 05:10:35;;;;;;;3.28;2.45;;;;;;;;;;5038464;28;20021;-60
2021/06/01 05:13:01;;;;;;;2.50;1.67;;;;;;;;;;5037262;28;20455;-60
2021/06/01 05:15:27;;;;;;;4.60;2.70;;;;;;;;;;5055709;28;20021;-60
2021/06/01 05:17:55;;;;;;;3.92;2.08;;;;;;;;;;5055598;28;20025;-60
2021/06/01 05:20:21;;;;;;;2.42;1.90;;;;;;;;;;5055388;28;20463;-60
2021/06/01 05:22:47;;;;;;;3.50;2.05;;;;;;;;;;5055875;28;20025;-60
2021/06/01 05:25:13;;;;;;;5.20;2.25;;;;;;;;;;5021256;28;20087;-60
2021/06/01 05:27:39;;;;;;;5.15;2.30;;;;;;;;;;5055415;28;20386;-60
2021/06/01 05:30:06;;;;;;;3.15;2.42;;;;;;;;;;5055403;28;20017;-60
2021/06/01 05:33:21;;;;;;;4.03;2.63;;;;;;;;;;5038348;28;20032;-60
2021/06/01 05:35:23;;;;;;;2.90;1.98;;;;;;;;;;5044197;28;20108;-60
2021/06/01 05:37:49;;;;;;;;;;;;;;;;;;5056234;28;20485;-60
2021/06/01 05:40:15;;;;;;;3.22;2.40;;;;;;;;;;5055409;28;19904;-60
2021/06/01 05:42:41;;;;;;;5.20;2.58;;;;;;;;;;5055741;28;20040;-60
2021/06/01 05:45:07;;;;;;;2.90;2.28;;;;;;;;;;5055325;28;20017;-60
2021/06/01 05:47:33;;;;;;;3.08;2.30;;;;;;;;;;5054787;28;20459;-60
2021/06/01 05:49:59;;;;;;;4.00;2.75;;;;;;;;;;5055078;28;20458;-60
2021/06/01 05:52:25;;;;;;;2.80;2.30;;;;;;;;;;5037197;28;20079;-60
2021/06/01 05:54:51;;;;;;;3.28;2.17;;;;;;;;;;5054919;28;20032;-60
2021/06/01 05:57:17;;;;;;;4.20;2.60;;;;;;;;;;5055341;28;20024;-60
2021/06/01 05:59:46;;;;;;;3.13;2.05;;;;;;;;;;5036792;28;20040;-60
2021/06/01 06:02:12;;;;;;;4.15;2.70;;;;;;;;;;5054665;28;20021;-60
2021/06/01 06:04:38;;;;;;;3.67;2.40;;;;;;;;;;5054729;28;20040;-60
2021/06/01 06:07:04;;;;;;;3.38;1.98;;;;;;;;;;5054576;28;20459;-60
2021/06/01 06:09:30;;;;;;;3.03;1.90;;;;;;;;;;5036626;28;20033;-60
2021/06/01 06:11:57;;;;;;;5.25;1.60;;;;;;;;;;5037461;28;20027;-60
2021/06/01 06:14:23;;;;;;;3.28;2.17;;;;;;;;;;5054491;28;20045;-60
2021/06/01 06:16:56;;;;;;;4.18;2.58;;;;;;;;;;5055000;28;20025;-60
2021/06/01 06:19:22;;;;;;;3.40;2.15;;;;;;;;;;5054247;28;20017;-60
2021/06/01 06:21:48;;;;;;;3.95;2.42;;;;;;;;;;5054505;28;20025;-60
2021/06/01 06:24:14;;;;;;;2.25;1.60;;;;;;;;;;5036697;28;20058;-60
2021/06/01 06:26:40;;;;;;;4.22;2.20;;;;;;;;;;5054709;28;20335;-60
2021/06/01 06:29:06;;;;;;;3.63;2.20;;;;;;;;;;5054765;28;20025;-60
2021/06/01 06:31:32;;;;;;;2.05;1.50;;;;;;;;;;5054731;28;20048;-60
2021/06/01 06:34:01;;;;;;;4.57;1.83;;;;;;;;;;5053871;28;20475;-60
2021/06/01 06:36:27;;;;;;;3.05;2.03;;;;;;;;;;5036290;28;20025;-60
2021/06/01 06:38:53;;;;;;;2.40;1.80;;;;;;;;;;5053976;28;20031;-60
2021/06/01 06:41:19;;;;;;;3.03;1.88;;;;;;;;;;5053912;28;20108;-60
2021/06/01 06:43:49;;;;;;;3.72;1.95;;;;;;;;;;5053940;28;20029;-60
2021/06/01 06:46:25;;;;;;;3.40;1.98;;;;;;;;;;5036676;28;20043;-60
2021/06/01 06:48:52;;;;;;;2.78;1.70;;;;;;;;;;5054733;28;20503;-60
2021/06/01 06:51:18;;;;;;;2.47;1.95;;;;;;;;;;5053878;28;20446;-59
2021/06/01 06:56:14;;;;;;;2.88;1.80;;;;;;;;;;5053950;28;20036;-59
2021/06/01 06:58:43;;;;;;;2.72;1.92;;;;;;;;;;5053878;28;20060;-59
2021/06/01 07:01:10;;;;;;;3.00;1.88;;;;;;;;;;5036478;28;20080;-59
2021/06/01 07:03:37;;;;;;;3.25;1.98;;;;;;;;;;5053663;28;20115;-59
2021/06/01 07:06:03;;;;;;;3.03;1.83;;;;;;;;;;5053685;28;20025;-59
2021/06/01 07:08:29;;;;;;;2.35;1.65;;;;;;;;;;5053299;28;20017;-59
2021/06/01 07:10:55;;;;;;;2.72;1.77;;;;;;;;;;5036358;28;20031;-59
2021/06/01 07:13:25;;;;;;;3.72;2.45;;;;;;;;;;5053482;28;20027;-59
2021/06/01 07:15:54;;;;;;;2.40;1.80;;;;;;;;;;5053676;28;20025;-59
2021/06/01 07:18:20;;;;;;;3.63;2.72;;;;;;;;;;5053646;28;20025;-59
2021/06/01 07:20:46;;;;;;;3.05;2.33;;;;;;;;;;5053758;28;20024;-59
2021/06/01 07:23:12;;;;;;;3.50;2.15;;;;;;;;;;5036383;28;20071;-59
2021/06/01 07:25:38;;;;;;;4.75;2.05;;;;;;;;;;5053473;28;20371;-59
2021/06/01 07:28:07;;;;;;;2.90;2.10;;;;;;;;;;5053529;28;20025;-59
2021/06/01 07:30:34;;;;;;;3.35;2.10;;;;;;;;;;5053589;28;20028;-59
2021/06/01 07:33:00;;;;;;;3.70;2.42;;;;;;;;;;5036227;28;20374;-59
2021/06/01 07:35:27;;;;;;;3.15;1.70;;;;;;;;;;5054750;28;20487;-59
2021/06/01 07:37:53;;;;;;;3.47;2.00;;;;;;;;;;5057496;28;20449;-59
2021/06/01 07:40:19;;;;;;;2.75;1.90;;;;;;;;;;5057287;28;20026;-59
2021/06/01 07:42:45;;;;;;;3.25;1.85;;;;;;;;;;5040147;28;20404;-59
2021/06/01 07:45:15;;;;;;;3.15;1.88;;;;;;;;;;5039625;28;20064;-59
2021/06/01 07:47:42;;;;;;;3.58;1.65;;;;;;;;;;5039997;28;20021;-59
2021/06/01 07:50:08;;;;;;;4.03;2.10;;;;;;;;;;5057280;28;20021;-59
2021/06/01 07:52:34;;;;;;;5.45;2.38;;;;;;;;;;5040413;28;20363;-59
2021/06/01 07:55:00;;;;;;;2.75;2.25;;;;;;;;;;5057903;28;20029;-59
2021/06/01 07:57:26;;;;;;;2.85;1.90;;;;;;;;;;5057149;28;20083;-59
2021/06/01 07:59:52;;;;;;;3.75;1.63;;;;;;;;;;5035502;28;20072;-59
2021/06/01 08:02:19;;;;;;;2.95;1.92;;;;;;;;;;5037057;28;20466;-59
2021/06/01 08:04:45;;;;;;;2.67;2.05;;;;;;;;;;5037051;28;20075;-59
2021/06/01 08:07:14;;;;;;;3.53;2.28;;;;;;;;;;5037043;28;20040;-59
2021/06/01 08:09:40;;;;;;;2.85;2.25;;;;;;;;;;5036968;28;20029;-59
2021/06/01 08:12:06;;;;;;;4.05;2.03;;;;;;;;;;5037326;28;20036;-59
2021/06/01 08:14:33;;;;;;;3.80;2.40;;;;;;;;;;5036852;28;20060;-59
2021/06/01 08:16:59;;;;;;;3.70;2.30;;;;;;;;;;5035853;28;20014;-59
2021/06/01 08:19:32;;;;;;;4.65;2.25;;;;;;;;;;5036791;28;20021;-59
2021/06/01 08:22:03;;;;;;;2.67;1.90;;;;;;;;;;5037334;28;20041;-59
2021/06/01 08:24:30;;;;;;;3.15;1.85;;;;;;;;;;5036780;28;20033;-59
2021/06/01 08:26:56;;;;;;;4.60;2.17;;;;;;;;;;5036904;28;20029;-59
2021/06/01 08:29:22;;;;;;;2.90;1.70;;;;;;;;;;5035835;28;20022;-59
2021/06/01 08:31:50;;;;;;;2.38;1.90;;;;;;;;;;5036739;28;20379;-59
2021/06/01 08:34:16;;;;;;;2.83;1.80;;;;;;;;;;5035320;28;20031;-59
2021/06/01 08:36:42;;;;;;;2.10;1.45;;;;;;;;;;5036468;28;20095;-59
2021/06/01 08:39:09;;;;;;;2.75;2.00;;;;;;;;;;5036475;28;20021;-59
2021/06/01 08:41:36;;;;;;;4.05;2.10;;;;;;;;;;5036379;28;20064;-59
2021/06/01 08:44:04;;;;;;;1.98;1.23;;;;;;;;;;5036987;28;20406;-59
2021/06/01 08:46:31;;;;;;;4.68;1.80;;;;;;;;;;5034928;28;20025;-59
2021/06/01 08:48:57;;;;;;;3.15;2.58;;;;;;;;;;5035316;28;20030;-59
2021/06/01 08:51:24;;;;;;;3.58;1.95;;;;;;;;;;5018705;28;20053;-59
2021/06/01 08:53:51;;;;;;;2.97;1.73;;;;;;;;;;5034855;28;20520;-59
2021/06/01 08:56:17;;;;;;;1.90;1.40;;;;;;;;;;5036479;28;20379;-59
2021/06/01 08:58:44;;;;;;;2.65;1.85;;;;;;;;;;5038655;28;20021;-59
2021/06/01 09:01:10;;;;;;;3.00;1.90;;;;;;;;;;5056545;28;20108;-59
2021/06/01 09:03:42;;;;;;;2.33;1.77;;;;;;;;;;5038596;28;20033;-59
2021/06/01 09:06:17;;;;;;;2.72;1.60;;;;;;;;;;5055990;28;20467;-59
2021/06/01 09:09:19;;;;;;;3.05;1.58;;;;;;;;;;5055597;28;20057;-59
2021/06/01 09:22:28;;;;;;;2.92;2.03;;;;;;;;;;5055617;28;20128;-59
2021/06/01 09:25:09;;;;;;;1.98;1.42;;;;;;;;;;5055964;28;20029;-59
2021/06/01 09:27:46;;;;;;;2.20;1.40;;;;;;;;;;5055510;28;20028;-59
2021/06/01 09:30:31;;;;;;;2.80;1.70;;;;;;;;;;5037342;28;20185;-59
2021/06/01 09:32:57;;;;;;;2.60;1.70;;;;;;;;;;5055552;28;20024;-59
2021/06/01 09:35:40;;;;;;;2.42;1.52;;;;;;;;;;5055832;28;20017;-59
2021/06/01 09:38:06;;;;;;;3.80;1.77;;;;;;;;;;5038562;28;20370;-59
2021/06/01 09:40:32;;;;;;;2.05;1.30;;;;;;;;;;5055252;28;20025;-59
2021/06/01 09:42:58;;;;;;;2.75;2.17;;;;;;;;;;5054898;28;20554;-59
2021/06/01 09:45:25;;;;;;;4.10;1.92;;;;;;;;;;5055137;28;20347;-59
2021/06/01 09:47:54;;;;;;;5.63;2.05;;;;;;;;;;5037798;28;20035;-59
2021/06/01 09:50:30;;;;;;;2.22;1.52;;;;;;;;;;5055074;28;20021;-59
2021/06/01 09:52:59;;;;;;;2.35;1.30;;;;;;;;;;5055097;28;20100;-59
2021/06/01 09:55:33;;;;;;;2.85;1.52;;;;;;;;;;5054904;28;20029;-59
2021/06/01 09:58:00;;;;;;;2.67;1.90;;;;;;;;;;5054648;28;20021;-59
2021/06/01 10:00:27;;;;;;;3.00;1.95;;;;;;;;;;5055594;28;20055;-59
2021/06/01 10:02:56;;;;;;;4.78;1.70;;;;;;;;;;5054797;28;20489;-59
2021/06/01 10:05:26;;;;;;;2.75;1.75;;;;;;;;;;5054775;28;20068;-59
2021/06/01 10:07:54;;;;;;;2.40;1.45;;;;;;;;;;5054764;28;20102;-59
2021/06/01 10:10:20;;;;;;;2.63;1.50;;;;;;;;;;5037091;28;20379;-60
2021/06/01 10:13:12;;;;;;;3.42;2.25;;;;;;;;;;5055488;28;20024;-60
2021/06/01 10:15:38;;;;;;;3.88;2.17;;;;;;;;;;5050186;28;20033;-60
2021/06/01 10:18:06;;;;;;;2.67;1.45;;;;;;;;;;5036305;28;20382;-60
2021/06/01 10:20:32;;;;;;;2.42;1.75;;;;;;;;;;5054158;28;20017;-60
2021/06/01 10:22:59;;;;;;;2.17;1.52;;;;;;;;;;5054326;28;20029;-60
2021/06/01 10:25:25;;;;;;;3.17;2.15;;;;;;;;;;5054358;28;20017;-60
2021/06/01 10:27:52;;;;;;;2.58;1.17;;;;;;;;;;5037332;28;20056;-60
2021/06/01 10:30:19;;;;;;;3.00;1.48;;;;;;;;;;5054371;28;20033;-60
2021/06/01 10:32:47;;;;;;;2.17;1.48;;;;;;;;;;5054831;28;20019;-60
2021/06/01 10:35:16;;;;;;;2.65;1.73;;;;;;;;;;5036672;28;20024;-60
2021/06/01 10:49:14;;;;;;;3.13;2.10;;;;;;;;;;5053890;28;20074;-60
2021/06/01 10:52:00;;;;;;;3.47;2.15;;;;;;;;;;5053777;28;20040;-60
2021/06/01 10:54:43;;;;;;;2.75;1.63;;;;;;;;;;5036067;28;20021;-60
2021/06/01 10:57:11;;;;;;;2.60;1.77;;;;;;;;;;5053915;28;20021;-60
2021/06/01 11:02:27;;;;;;;2.38;1.63;;;;;;;;;;5054165;28;20139;-60
2021/06/01 11:04:59;;;;;;;2.40;1.45;;;;;;;;;;5053778;28;20029;-60
2021/06/01 11:07:27;;;;;;;2.58;1.60;;;;;;;;;;5053756;28;20032;-60
2021/06/01 11:09:54;;;;;;;2.35;1.60;;;;;;;;;;5053495;28;20017;-60
2021/06/01 11:12:24;;;;;;;3.13;1.80;;;;;;;;;;5036276;28;20029;-60
2021/06/01 11:14:51;;;;;;;3.15;1.98;;;;;;;;;;5053707;28;20021;-60
2021/06/01 11:17:36;;;;;;;2.65;1.70;;;;;;;;;;5054090;28;20374;-60
2021/06/01 11:20:09;;;;;;;6.40;2.20;;;;;;;;;;5053665;28;20017;-60
2021/06/01 11:22:41;;;;;;;3.05;1.58;;;;;;;;;;5053608;28;20104;-60
2021/06/01 11:33:29;;;;;;;3.05;1.92;;;;;;;;;;5053602;28;20114;-60
2021/06/01 11:36:03;;;;;;;3.08;1.80;;;;;;;;;;5035694;28;20017;-60
2021/06/01 11:43:49;;;;;;;2.20;1.25;;;;;;;;;;5053469;28;20175;-60
2021/06/01 11:51:17;;;;;;;2.45;2.17;;;;;;;;;;5053397;28;20033;-60
2021/06/01 11:53:46;;;;;;;2.88;1.95;;;;;;;;;;5053197;28;20044;-60
2021/06/01 11:56:13;;;;;;;3.40;1.70;;;;;;;;;;5053245;28;20108;-60
2021/06/01 12:18:15;;;;;;;3.38;2.03;;;;;;;;;;5053037;28;20121;-60
2021/06/01 12:20:42;;;;;;;4.22;2.50;;;;;;;;;;5053474;28;20103;-60
2021/06/01 12:23:26;;;;;;;2.50;1.77;;;;;;;;;;5057549;28;20465;-60
2021/06/01 12:25:59;;;;;;;2.35;1.92;;;;;;;;;;5056672;28;20102;-60
2021/06/01 12:31:29;;;;;;;2.80;1.92;;;;;;;;;;4994879;28;20503;-60
2021/06/01 12:34:01;;;;;;;4.10;2.50;;;;;;;;;;5045001;28;20360;-60
2021/06/01 12:45:46;;;;;;;4.00;2.20;;;;;;;;;;5056722;28;20069;-60
2021/06/01 13:21:42;;;;;;;2.60;1.75;;;;;;;;;;5055387;28;20062;-59
2021/06/01 13:30:17;;;;;;;2.80;1.88;;;;;;;;;;5055620;28;20128;-59
2021/06/01 13:32:44;;;;;;;3.17;1.90;;;;;;;;;;5054590;28;20040;-59
2021/06/01 13:46:08;;;;;;;2.50;1.73;;;;;;;;;;5055207;28;20033;-60
2021/06/01 13:56:15;;;;;;;2.63;1.77;;;;;;;;;;5055062;28;20048;-60
2021/06/01 13:58:54;;;;;;;2.65;1.70;;;;;;;;;;5036798;28;20047;-60
2021/06/01 14:09:45;;;;;;;2.35;1.63;;;;;;;;;;5054746;28;20028;-60
2021/06/01 14:31:25;;;;;;;2.50;1.85;;;;;;;;;;5030413;28;20064;-60
2021/06/01 15:28:49;;;;;;;3.08;2.42;;;;;;;;;;5053904;28;20432;-60
2021/06/01 15:47:52;;;;;;;3.00;1.80;;;;;;;;;;5053612;28;20083;-60
2021/06/01 15:53:20;;;;;;;2.83;1.60;;;;;;;;;;5053562;28;20457;-60
2021/06/01 16:23:06;;;;;;;2.10;1.27;;;;;;;;;;5056356;28;20090;-60
2021/06/01 17:03:15;;;;;;;2.30;1.50;;;;;;;;;;5056183;28;20044;-59
2021/06/01 17:13:41;;;;;;;3.50;1.35;;;;;;;;;;5055871;28;20446;-59
2021/06/01 17:16:12;;;;;;;2.25;1.50;;;;;;;;;;5055773;28;20051;-59
2021/06/01 17:37:20;;;;;;;3.13;2.10;;;;;;;;;;5055176;28;20033;-60
2021/06/01 17:39:46;;;;;;;6.50;1.80;;;;;;;;;;5055518;28;20021;-59
2021/06/01 17:42:16;;;;;;;2.35;1.20;;;;;;;;;;5055654;28;20108;-60
2021/06/01 17:44:43;;;;;;;2.25;1.50;;;;;;;;;;5055464;28;20036;-60
2021/06/01 17:47:13;;;;;;;2.60;1.40;;;;;;;;;;5055212;28;20070;-60
2021/06/01 17:49:40;;;;;;;2.30;1.30;;;;;;;;;;5055459;28;20074;-59
2021/06/01 17:52:06;;;;;;;3.47;1.58;;;;;;;;;;5055423;28;20025;-59
2021/06/01 17:54:33;;;;;;;2.25;1.35;;;;;;;;;;5054706;28;20021;-59
2021/06/01 17:57:00;;;;;;;2.75;1.77;;;;;;;;;;5037624;28;20028;-60
2021/06/01 17:59:27;;;;;;;3.25;1.48;;;;;;;;;;5055167;28;20136;-59
2021/06/01 18:01:53;;;;;;;2.67;1.65;;;;;;;;;;5037332;28;20438;-60
2021/06/01 18:04:20;;;;;;;2.88;1.60;;;;;;;;;;5054820;28;20053;-60
2021/06/01 18:06:52;;;;;;;3.08;1.67;;;;;;;;;;5054821;28;20075;-60
2021/06/01 18:12:19;;;;;;;2.17;1.38;;;;;;;;;;5054862;28;20551;-60
2021/06/01 19:01:52;;;;;;;5.25;1.77;;;;;;;;;;5054077;28;20055;-59
2021/06/01 19:42:59;;;;;;;2.35;1.75;;;;;;;;;;5057624;28;20055;-59
2021/06/01 19:50:45;;;;;;;2.90;1.93;;;;;;;;;;5057319;28;20079;-59
2021/06/01 19:53:13;;;;;;;2.92;1.98;;;;;;;;;;5057678;28;20021;-60
2021/06/01 19:55:39;;;;;;;3.05;1.75;;;;;;;;;;5057260;28;20029;-59
2021/06/01 19:58:05;;;;;;;2.47;1.60;;;;;;;;;;5057220;28;20083;-59
2021/06/01 20:00:35;;;;;;;3.17;2.20;;;;;;;;;;5057372;28;20045;-59
2021/06/01 20:03:01;;;;;;;3.58;1.80;;;;;;;;;;5039773;28;20477;-59
2021/06/01 20:05:27;;;;;;;4.70;1.90;;;;;;;;;;5057329;28;20447;-59
2021/06/01 20:07:53;;;;;;;5.80;1.92;;;;;;;;;;5057588;28;20016;-59
2021/06/01 20:10:19;;;;;;;6.13;2.20;;;;;;;;;;5057799;28;20063;-59
2021/06/01 20:12:46;;;;;;;2.90;1.98;;;;;;;;;;5039046;28;20036;-59
2021/06/01 20:15:13;;;;;;;3.60;2.17;;;;;;;;;;5038828;28;20021;-59
2021/06/01 20:17:41;;;;;;;4.90;1.85;;;;;;;;;;5056520;28;20622;-59
2021/06/01 20:20:07;;;;;;;3.03;2.10;;;;;;;;;;5039103;28;20071;-59
2021/06/01 20:22:33;;;;;;;3.75;1.88;;;;;;;;;;5057038;28;20029;-59
2021/06/01 20:25:00;;;;;;;3.00;1.88;;;;;;;;;;5057212;28;20095;-59
2021/06/01 20:27:27;;;;;;;3.20;2.05;;;;;;;;;;5056978;28;20017;-59
2021/06/01 20:29:56;;;;;;;3.63;2.20;;;;;;;;;;5056733;28;20096;-59
2021/06/01 20:35:13;;;;;;;2.80;1.83;;;;;;;;;;5057009;28;20028;-59
2021/06/01 20:37:40;;;;;;;7.35;2.20;;;;;;;;;;5056861;28;20437;-59
2021/06/01 20:40:07;;;;;;;4.65;2.33;;;;;;;;;;5039084;28;20406;-59
2021/06/01 20:42:33;;;;;;;5.00;2.47;;;;;;;;;;5056352;28;20031;-59
2021/06/01 20:45:01;;;;;;;3.97;2.13;;;;;;;;;;5057217;28;20094;-59
2021/06/01 20:47:27;;;;;;;2.85;2.20;;;;;;;;;;5056806;28;20495;-59
2021/06/01 20:49:53;;;;;;;3.17;1.80;;;;;;;;;;5056201;28;20028;-59
2021/06/01 20:52:21;;;;;;;4.13;2.15;;;;;;;;;;5039010;28;20036;-60
2021/06/01 20:54:47;;;;;;;2.67;2.10;;;;;;;;;;5038328;28;20029;-60
2021/06/01 20:57:15;;;;;;;3.17;2.17;;;;;;;;;;5056229;28;20036;-60
2021/06/01 20:59:41;;;;;;;3.20;1.98;;;;;;;;;;5056284;28;20048;-60
2021/06/01 21:02:09;;;;;;;3.33;1.95;;;;;;;;;;5056012;28;20025;-60
2021/06/01 21:04:35;;;;;;;3.60;2.05;;;;;;;;;;5056338;28;20028;-60
2021/06/01 21:07:03;;;;;;;3.03;2.03;;;;;;;;;;5055980;28;20020;-60
2021/06/01 21:09:32;;;;;;;4.03;2.08;;;;;;;;;;5055931;28;20021;-60
2021/06/01 21:11:58;;;;;;;3.85;2.17;;;;;;;;;;5056240;28;20033;-60
2021/06/01 21:14:24;;;;;;;3.80;2.45;;;;;;;;;;5055825;28;20024;-60
2021/06/01 21:16:50;;;;;;;5.13;2.33;;;;;;;;;;5038742;28;20021;-60
2021/06/01 21:19:16;;;;;;;8.23;2.90;;;;;;;;;;5055699;28;20096;-60
2021/06/01 21:21:42;;;;;;;4.57;2.30;;;;;;;;;;5056150;28;20029;-60
2021/06/01 21:24:10;;;;;;;3.92;2.15;;;;;;;;;;5038737;28;20032;-60
2021/06/01 21:26:36;;;;;;;3.22;2.33;;;;;;;;;;5037473;28;20028;-60
2021/06/01 21:29:02;;;;;;;5.20;2.65;;;;;;;;;;5055882;28;20025;-60
2021/06/01 21:31:33;;;;;;;4.20;2.53;;;;;;;;;;5055581;28;20163;-60
2021/06/01 21:34:04;;;;;;;3.92;2.30;;;;;;;;;;5055862;28;20355;-60
2021/06/01 21:36:29;;;;;;;;;;;;;;;;;;5056248;28;20393;-60
2021/06/01 21:38:56;;;;;;;2.35;1.55;;;;;;;;;;5055113;28;19915;-60
2021/06/01 21:41:22;;;;;;;4.15;2.05;;;;;;;;;;5055246;28;20028;-60
2021/06/01 21:43:52;;;;;;;2.75;2.15;;;;;;;;;;5054908;28;20021;-60
2021/06/01 21:46:19;;;;;;;3.33;2.60;;;;;;;;;;5055238;28;20027;-60
2021/06/01 21:48:46;;;;;;;4.20;2.42;;;;;;;;;;5055158;28;20075;-60
2021/06/01 21:51:12;;;;;;;3.08;1.88;;;;;;;;;;5055114;28;20021;-60
2021/06/01 21:53:40;;;;;;;4.20;2.88;;;;;;;;;;5054555;28;20028;-60
2021/06/01 21:56:08;;;;;;;3.50;2.53;;;;;;;;;;5055333;28;20426;-59
2021/06/01 21:58:36;;;;;;;4.28;2.78;;;;;;;;;;5055004;28;20025;-59
2021/06/01 22:01:03;;;;;;;3.30;2.08;;;;;;;;;;5016839;28;20056;-60
2021/06/01 22:03:29;;;;;;;2.70;1.90;;;;;;;;;;5035046;28;20025;-60
2021/06/01 22:05:58;;;;;;;2.92;2.20;;;;;;;;;;5034976;28;20021;-60
2021/06/01 22:08:24;;;;;;;2.92;2.15;;;;;;;;;;5035627;28;20082;-60
2021/06/01 22:10:51;;;;;;;3.10;2.10;;;;;;;;;;5035393;28;20064;-60
2021/06/01 22:13:18;;;;;;;3.45;2.60;;;;;;;;;;5035081;28;20096;-60
2021/06/01 22:15:47;;;;;;;3.45;2.03;;;;;;;;;;5034738;28;20030;-60
2021/06/01 22:18:14;;;;;;;2.80;2.30;;;;;;;;;;5034622;28;20490;-59
2021/06/01 22:20:42;;;;;;;3.35;2.45;;;;;;;;;;5034653;28;20037;-59
2021/06/01 22:23:09;;;;;;;4.47;2.00;;;;;;;;;;5034569;28;20048;-60
2021/06/01 22:25:35;;;;;;;3.92;2.38;;;;;;;;;;5034536;28;20025;-60
2021/06/01 22:28:02;;;;;;;2.80;1.98;;;;;;;;;;5035093;28;20024;-60
2021/06/01 22:30:30;;;;;;;6.57;3.15;;;;;;;;;;5034473;28;20071;-60
2021/06/01 22:33:01;;;;;;;5.78;3.25;;;;;;;;;;5033425;28;20497;-60
2021/06/01 22:35:31;;;;;;;3.83;2.50;;;;;;;;;;5034783;28;20025;-60
2021/06/01 22:37:58;;;;;;;5.43;2.47;;;;;;;;;;5034632;28;20367;-60
2021/06/01 22:40:24;;;;;;;3.08;2.22;;;;;;;;;;5034618;28;20359;-59
2021/06/01 22:42:50;;;;;;;3.20;2.25;;;;;;;;;;5034759;28;20030;-60
2021/06/01 22:45:17;;;;;;;2.95;2.13;;;;;;;;;;5034157;28;20116;-60
2021/06/01 22:47:46;;;;;;;2.63;2.40;;;;;;;;;;5034217;28;20025;-60
2021/06/01 22:50:13;;;;;;;5.28;2.58;;;;;;;;;;5034327;28;20029;-60